RJDB(METAR)
05/30 17:00
RJDB 300800Z 02005KT CAVOK 21/17 Q1015 RMK A2998=
戻る
トップページへ戻る
IMOC Co,.Ltd.